お知らせ:
表示件数の上限に達しました。これ以上の検索結果は表示できません。再読み込み
更新日時順»

ベストツイート

FDA383/JAL4323便、山形空港行きが只今出発致しました。

Twitter名古屋空港_bot@RJNA_bot

返信 リツイート 11:45

FDA383/JAL4323便、山形空港行きが只今出発致しました。

Twitter名古屋空港_bot@RJNA_bot

返信 リツイート 11:45

山形空港の愛称、「おいしい山形空港」なの!?かっけぇ!!

山形空港 ( RJSC / GAJ ) - 山形県東根市 飛行場実況気象(Metar) 観測時間05/22 10:00 JST (05/22 01:00 UTC) 風向・風速南南西 2m/s 視程10km以上 天気現象 雲少しの雲 雲底高度 910m 気温17℃ 湿度68% 気圧1007hPa METARRJSC 220100Z 20004KT 080V250 9999 FEW030 BKN/// 17/11 Q1007

Twitter(酒天童子)SeinoYoshihiro@SYUTENDOJI

返信 リツイート 10:30

FDA381/JAL4321便、山形空港から只今飛行機が到着致しました。

Twitter名古屋空港_bot@RJNA_bot

返信 リツイート 9:40

【定期】山形空港

医者殺しの事件があった山形県東根市は山形市の隣の隣で、車で30~40分くらい。山形空港の所在地。

返信先:@SAKENOKOIKURACH 最後の写真の美味しい山形空港ってどんな味なん? 壁とかめっちゃ甘いんか?w

ガソリン満タン給油 (1L:¥139) (@ ENEOS 13号線山形空港SS in 東根市, 山形県) swarmapp.com/c/gCvsMi8KsTE pic.twitter.com/7VmPMskHW6

返信先:@BUSHI_njpw 山形空港って可愛いお名前がついてたんですね😋お隣なのに初めて知りました! 仙台の記者会見から始まって東北6戦! 移動と連戦。大変お疲れ様でした。東北でBUSHIさんの試合をたくさん見られて幸せでした✨ いよいよ明日から後楽園ですね! 連日勝利での巻き返しを楽しみにしています✨

どうでもいいっちゃいいんだけど、 東根市にあるのは 神町駅と さくらんぼ東根駅と 東根駅と おいしい山形空港。 で、「さくらんぼ駅」はない。 #NHK #山形

お知らせ:
表示件数の上限に達しました。これ以上の検索結果は表示できません。再読み込み
リアルタイム検索

山形空港の分析グラフ

ツイート数の推移

感情の推移

感情の割合

トレンド(12:48時点)

この検索結果をシェア